createdAt,value
2023-08-22T00:00:20.009Z,20.10
2023-08-22T00:03:07.627Z,20.10
2023-08-22T00:05:55.063Z,20.10
2023-08-22T00:08:44.537Z,20.10
2023-08-22T00:11:31.746Z,20.00
2023-08-22T00:14:19.333Z,20.00
2023-08-22T00:17:06.816Z,19.90
2023-08-22T00:19:54.631Z,19.70
2023-08-22T00:22:42.616Z,19.70
2023-08-22T00:25:31.625Z,19.70
2023-08-22T00:28:19.026Z,19.80
2023-08-22T00:31:06.440Z,19.90
2023-08-22T00:33:53.853Z,20.00
2023-08-22T00:36:41.364Z,20.10
2023-08-22T00:39:29.031Z,20.10
2023-08-22T00:42:17.867Z,20.10
2023-08-22T00:45:05.730Z,20.20
2023-08-22T00:47:53.566Z,20.10
2023-08-22T00:50:41.001Z,20.10
2023-08-22T00:53:28.788Z,20.10
2023-08-22T00:56:16.722Z,20.10
2023-08-22T00:59:05.865Z,20.10
2023-08-22T01:01:53.549Z,20.10
2023-08-22T01:04:40.824Z,20.10
2023-08-22T01:07:34.763Z,20.10
2023-08-22T01:10:29.596Z,20.00
2023-08-22T01:13:21.800Z,20.10
2023-08-22T01:16:11.081Z,20.00
2023-08-22T01:19:02.122Z,20.00
2023-08-22T01:21:52.257Z,20.00
2023-08-22T01:24:41.398Z,20.00
2023-08-22T01:27:37.885Z,20.00
2023-08-22T01:30:32.827Z,19.90
2023-08-22T01:33:27.757Z,20.00
2023-08-22T01:36:17.505Z,20.00
2023-08-22T01:39:08.940Z,20.00
2023-08-22T01:41:57.628Z,19.90
2023-08-22T01:44:45.648Z,19.90
2023-08-22T01:47:33.002Z,19.90
2023-08-22T01:50:20.765Z,19.90
2023-08-22T01:53:09.370Z,19.90
2023-08-22T01:56:01.479Z,19.90
2023-08-22T01:58:48.603Z,19.90
2023-08-22T02:01:36.260Z,19.90
2023-08-22T02:04:24.681Z,19.80
2023-08-22T02:07:12.050Z,19.70
2023-08-22T02:10:00.172Z,19.70
2023-08-22T02:12:48.747Z,19.70
2023-08-22T02:15:35.998Z,19.70
2023-08-22T02:18:23.364Z,19.70
2023-08-22T02:21:10.785Z,19.60
2023-08-22T02:23:58.324Z,19.50
2023-08-22T02:26:46.947Z,19.70
2023-08-22T02:29:35.454Z,19.70
2023-08-22T02:32:22.580Z,19.60
2023-08-22T02:35:10.477Z,19.60
2023-08-22T02:37:58.017Z,19.50
2023-08-22T02:40:45.482Z,19.50
2023-08-22T02:43:33.080Z,19.40
2023-08-22T02:46:23.140Z,19.50
2023-08-22T02:49:10.428Z,19.60
2023-08-22T02:51:57.800Z,19.60
2023-08-22T02:54:45.918Z,19.60
2023-08-22T02:57:34.452Z,19.60
2023-08-22T03:00:22.102Z,19.70
2023-08-22T03:03:10.528Z,19.60
2023-08-22T03:05:59.737Z,19.60
2023-08-22T03:08:47.152Z,19.50
2023-08-22T03:11:34.622Z,19.30
2023-08-22T03:14:22.449Z,19.40
2023-08-22T03:17:09.728Z,19.30
2023-08-22T03:19:59.756Z,19.30
2023-08-22T03:22:46.983Z,19.40
2023-08-22T03:25:34.827Z,19.30
2023-08-22T03:28:22.342Z,19.30
2023-08-22T03:31:10.066Z,19.40
2023-08-22T03:33:57.425Z,19.30
2023-08-22T03:36:46.161Z,19.20
2023-08-22T03:39:35.035Z,19.30
2023-08-22T03:42:22.460Z,19.30
2023-08-22T03:45:11.559Z,19.30
2023-08-22T03:48:04.699Z,19.30
2023-08-22T03:50:53.449Z,19.40
2023-08-22T03:53:42.298Z,19.40
2023-08-22T03:56:29.527Z,19.40
2023-08-22T03:59:16.981Z,19.50
2023-08-22T04:02:04.499Z,19.40
2023-08-22T04:04:51.843Z,19.50
2023-08-22T04:07:40.500Z,19.50
2023-08-22T04:10:29.821Z,19.50
2023-08-22T04:13:17.002Z,19.40
2023-08-22T04:16:04.499Z,19.30
2023-08-22T04:18:51.960Z,19.40
2023-08-22T04:21:39.513Z,19.40
2023-08-22T04:24:26.996Z,19.50
2023-08-22T04:27:16.343Z,19.50
2023-08-22T04:30:04.763Z,19.50
2023-08-22T04:32:52.455Z,19.60
2023-08-22T04:35:40.219Z,19.60
2023-08-22T04:38:27.646Z,19.60
2023-08-22T04:41:17.192Z,19.70
2023-08-22T04:44:32.039Z,19.70
2023-08-22T04:47:19.218Z,19.70
2023-08-22T04:50:08.467Z,19.70
2023-08-22T04:52:55.957Z,19.80
2023-08-22T04:55:43.543Z,19.70
2023-08-22T04:58:30.954Z,19.80
2023-08-22T05:01:19.863Z,19.70
2023-08-22T05:04:07.536Z,19.80
2023-08-22T05:06:55.056Z,19.80
2023-08-22T05:09:43.038Z,19.90
2023-08-22T05:12:30.542Z,19.90
2023-08-22T05:15:18.314Z,19.90
2023-08-22T05:18:10.024Z,19.80
2023-08-22T05:20:57.048Z,19.80
2023-08-22T05:23:44.840Z,19.80
2023-08-22T05:26:33.652Z,19.90
2023-08-22T05:29:21.803Z,19.90
2023-08-22T05:32:09.397Z,20.00
2023-08-22T05:34:58.020Z,20.10
2023-08-22T05:37:45.424Z,20.10
2023-08-22T05:40:33.087Z,20.20
2023-08-22T05:43:20.465Z,20.20
2023-08-22T05:46:07.906Z,20.30
2023-08-22T05:48:56.511Z,20.40
2023-08-22T05:51:45.641Z,20.50
2023-08-22T05:54:34.154Z,20.60
2023-08-22T05:57:23.895Z,20.70
2023-08-22T06:00:13.802Z,20.70
2023-08-22T06:03:14.110Z,20.70
2023-08-22T06:06:01.530Z,20.70
2023-08-22T06:08:51.274Z,20.70
2023-08-22T06:11:38.608Z,20.70
2023-08-22T06:14:26.195Z,20.70
2023-08-22T06:17:13.995Z,20.80
2023-08-22T06:20:01.808Z,20.80
2023-08-22T06:22:50.591Z,20.80
2023-08-22T06:25:39.601Z,20.80
2023-08-22T06:28:27.387Z,20.80
2023-08-22T06:31:15.416Z,20.90
2023-08-22T06:34:02.957Z,21.10
2023-08-22T06:36:50.270Z,21.10
2023-08-22T06:39:39.299Z,21.10
2023-08-22T06:42:28.004Z,21.30
2023-08-22T06:45:15.224Z,21.40
2023-08-22T06:48:02.725Z,21.50
2023-08-22T06:50:51.090Z,21.80
2023-08-22T06:53:38.258Z,22.10
2023-08-22T06:56:25.641Z,22.40
2023-08-22T06:59:14.231Z,22.40
2023-08-22T07:02:01.570Z,22.90
2023-08-22T07:04:50.171Z,23.30
2023-08-22T07:07:37.502Z,23.30
2023-08-22T07:10:25.239Z,23.30
2023-08-22T07:13:12.512Z,23.20
2023-08-22T07:16:01.574Z,23.00
2023-08-22T07:18:48.975Z,22.70
2023-08-22T07:21:36.436Z,22.70
2023-08-22T07:24:24.778Z,22.70
2023-08-22T07:27:13.089Z,22.70
2023-08-22T07:30:00.508Z,22.80
2023-08-22T07:32:49.534Z,23.10
2023-08-22T07:35:36.840Z,23.40
2023-08-22T07:38:23.876Z,23.70
2023-08-22T07:41:11.492Z,24.10
2023-08-22T07:43:58.690Z,24.00
2023-08-22T07:46:46.122Z,23.60
2023-08-22T07:49:34.948Z,23.40
2023-08-22T07:52:22.385Z,23.40
2023-08-22T07:55:10.397Z,23.40
2023-08-22T07:57:57.496Z,23.40
2023-08-22T08:00:49.007Z,23.40
2023-08-22T08:03:36.495Z,23.40
2023-08-22T08:06:25.410Z,23.70
2023-08-22T08:09:18.939Z,23.90
2023-08-22T08:12:13.342Z,23.90
2023-08-22T08:15:00.579Z,24.10
2023-08-22T08:17:48.144Z,24.00
2023-08-22T08:20:35.626Z,24.20
2023-08-22T08:23:24.483Z,24.00
2023-08-22T08:26:11.941Z,24.10
2023-08-22T08:28:59.736Z,24.00
2023-08-22T08:31:48.412Z,24.20
2023-08-22T08:34:36.871Z,23.90
2023-08-22T08:37:26.546Z,24.00
2023-08-22T08:45:35.586Z,24.10
2023-08-22T08:48:23.893Z,24.10
2023-08-22T08:51:12.029Z,24.10
2023-08-22T08:53:59.873Z,24.20
2023-08-22T08:56:47.362Z,24.50
2023-08-22T08:59:34.808Z,24.60
2023-08-22T09:02:23.733Z,25.00
2023-08-22T09:05:12.833Z,24.80
2023-08-22T09:13:49.682Z,24.80
2023-08-22T09:16:38.040Z,24.40
2023-08-22T09:19:26.495Z,24.10
2023-08-22T09:22:14.975Z,24.10
2023-08-22T09:25:02.462Z,24.20
2023-08-22T09:27:53.253Z,24.30
2023-08-22T09:30:48.900Z,24.60
2023-08-22T09:33:46.949Z,24.60
2023-08-22T09:36:35.860Z,25.10
2023-08-22T09:39:24.613Z,25.20
2023-08-22T09:42:12.410Z,25.50
2023-08-22T09:45:00.701Z,25.30
2023-08-22T09:47:50.748Z,25.40
2023-08-22T09:50:42.992Z,25.60
2023-08-22T09:53:33.770Z,25.80
2023-08-22T09:56:21.729Z,26.00
2023-08-22T09:59:09.552Z,26.60
2023-08-22T10:01:58.557Z,27.10
2023-08-22T10:04:46.705Z,27.10
2023-08-22T10:07:33.914Z,26.60
2023-08-22T10:10:24.519Z,26.30
2023-08-22T10:13:12.786Z,26.30
2023-08-22T10:16:00.721Z,26.40
2023-08-22T10:18:48.276Z,26.20
2023-08-22T10:21:43.641Z,26.20
2023-08-22T10:24:32.387Z,26.30
2023-08-22T10:27:20.989Z,26.10
2023-08-22T10:30:22.002Z,26.40
2023-08-22T10:36:18.835Z,26.30
2023-08-22T10:36:26.398Z,26.60
2023-08-22T10:39:06.928Z,26.40
2023-08-22T10:41:58.191Z,26.40
2023-08-22T10:44:50.792Z,26.30
2023-08-22T10:47:37.990Z,26.40
2023-08-22T10:50:34.483Z,26.30
2023-08-22T10:53:24.427Z,26.20
2023-08-22T10:56:24.146Z,26.40
2023-08-22T10:59:11.310Z,26.40
2023-08-22T11:02:00.137Z,26.30
2023-08-22T11:04:49.348Z,26.50
2023-08-22T11:07:37.068Z,26.40
2023-08-22T11:10:26.630Z,26.40
2023-08-22T11:13:14.084Z,26.60
2023-08-22T11:16:02.687Z,26.50
2023-08-22T11:18:51.814Z,26.50
2023-08-22T11:21:40.716Z,26.00
2023-08-22T11:24:28.064Z,25.80
2023-08-22T11:27:15.897Z,25.70
2023-08-22T11:30:03.491Z,25.60
2023-08-22T11:32:51.381Z,25.70
2023-08-22T11:35:41.970Z,25.70
2023-08-22T11:38:29.224Z,25.70
2023-08-22T11:41:16.770Z,25.90
2023-08-22T11:44:03.995Z,26.00
2023-08-22T11:46:51.749Z,25.70
2023-08-22T11:49:59.757Z,25.70
2023-08-22T11:52:49.907Z,25.80
2023-08-22T11:55:41.589Z,25.70
2023-08-22T11:58:28.882Z,25.70
2023-08-22T12:01:16.388Z,25.90
2023-08-22T12:04:08.281Z,26.00
2023-08-22T12:07:02.088Z,26.00
2023-08-22T12:10:00.992Z,26.10
2023-08-22T12:12:48.272Z,25.90
2023-08-22T12:15:36.053Z,26.10
2023-08-22T12:18:30.271Z,26.20
2023-08-22T12:21:17.961Z,26.00
2023-08-22T12:24:06.550Z,26.00
2023-08-22T12:26:55.396Z,25.90
2023-08-22T12:29:43.234Z,25.90
2023-08-22T12:32:32.549Z,26.20
2023-08-22T12:35:21.465Z,26.20
2023-08-22T12:38:09.632Z,26.20
2023-08-22T12:40:58.296Z,26.20
2023-08-22T12:43:47.360Z,26.10
2023-08-22T12:46:34.724Z,26.10
2023-08-22T12:49:21.978Z,26.00
2023-08-22T12:52:09.320Z,26.00
2023-08-22T12:54:56.849Z,25.90
2023-08-22T12:57:44.667Z,25.60
2023-08-22T13:00:33.894Z,25.30
2023-08-22T13:03:21.509Z,25.30
2023-08-22T13:06:09.052Z,25.40
2023-08-22T13:08:59.308Z,25.60
2023-08-22T13:11:46.721Z,25.60
2023-08-22T13:14:34.124Z,25.70
2023-08-22T13:17:22.969Z,25.80
2023-08-22T13:20:11.369Z,25.70
2023-08-22T13:22:58.592Z,25.70
2023-08-22T13:25:46.081Z,25.50
2023-08-22T13:28:33.592Z,25.50
2023-08-22T13:31:21.428Z,25.60
2023-08-22T13:34:10.319Z,25.40
2023-08-22T13:36:57.437Z,25.20
2023-08-22T13:39:45.049Z,25.40
2023-08-22T13:42:32.693Z,25.40
2023-08-22T13:45:20.159Z,25.30
2023-08-22T13:48:07.692Z,25.40
2023-08-22T13:50:56.351Z,25.50
2023-08-22T13:53:43.682Z,25.60
2023-08-22T13:56:32.067Z,25.60
2023-08-22T13:59:19.206Z,25.40
2023-08-22T14:02:06.994Z,25.40
2023-08-22T14:04:54.398Z,25.20
2023-08-22T14:07:43.446Z,25.20
2023-08-22T14:10:31.255Z,25.10
2023-08-22T14:13:18.670Z,25.20
2023-08-22T14:16:06.442Z,25.30
2023-08-22T14:18:53.636Z,25.20
2023-08-22T14:21:47.679Z,25.20
2023-08-22T14:24:37.219Z,25.30
2023-08-22T14:27:26.597Z,25.20
2023-08-22T14:30:15.132Z,25.20
2023-08-22T14:33:02.514Z,25.10
2023-08-22T14:35:49.862Z,25.10
2023-08-22T14:38:37.697Z,25.20
2023-08-22T14:41:28.445Z,25.30
2023-08-22T14:44:16.148Z,25.30
2023-08-22T14:47:03.431Z,25.20
2023-08-22T14:49:50.798Z,25.20
2023-08-22T14:52:38.411Z,25.20
2023-08-22T14:55:26.269Z,25.20
2023-08-22T14:58:15.066Z,25.20
2023-08-22T15:01:02.157Z,25.10
2023-08-22T15:03:50.065Z,25.10
2023-08-22T15:06:37.200Z,25.10
2023-08-22T15:09:24.649Z,25.20
2023-08-22T15:12:12.237Z,25.00
2023-08-22T15:15:01.040Z,25.10
2023-08-22T15:17:48.487Z,24.90
2023-08-22T15:20:37.281Z,24.80
2023-08-22T15:23:25.478Z,24.80
2023-08-22T15:26:12.789Z,24.80
2023-08-22T15:29:00.212Z,24.80
2023-08-22T15:31:49.021Z,24.90
2023-08-22T15:34:36.373Z,24.90
2023-08-22T15:37:23.958Z,24.90
2023-08-22T15:40:11.449Z,24.90
2023-08-22T15:43:00.358Z,24.90
2023-08-22T15:45:48.705Z,25.00
2023-08-22T15:48:37.391Z,25.00
2023-08-22T15:51:24.614Z,24.80
2023-08-22T15:54:12.099Z,24.80
2023-08-22T15:56:59.447Z,24.70
2023-08-22T15:59:46.962Z,24.80
2023-08-22T16:02:34.740Z,24.70
2023-08-22T16:05:23.602Z,24.60
2023-08-22T16:08:11.098Z,24.60
2023-08-22T16:10:58.535Z,24.40
2023-08-22T16:13:46.099Z,24.30
2023-08-22T16:16:33.591Z,24.30
2023-08-22T16:19:23.314Z,24.30
2023-08-22T16:22:11.839Z,24.30
2023-08-22T16:24:59.342Z,24.20
2023-08-22T16:27:46.723Z,24.20
2023-08-22T16:30:35.118Z,24.20
2023-08-22T16:33:23.009Z,24.20
2023-08-22T16:36:10.111Z,24.20
2023-08-22T16:38:59.056Z,24.10
2023-08-22T16:41:46.426Z,24.10
2023-08-22T16:44:34.165Z,24.20
2023-08-22T16:47:21.465Z,24.40
2023-08-22T16:50:09.697Z,24.40
2023-08-22T16:52:57.299Z,24.40
2023-08-22T16:55:47.931Z,24.50
2023-08-22T16:58:40.014Z,24.40
2023-08-22T17:01:27.491Z,24.40
2023-08-22T17:04:16.285Z,24.40
2023-08-22T17:07:06.914Z,24.40
2023-08-22T17:09:55.799Z,24.40
2023-08-22T17:12:44.584Z,24.40
2023-08-22T17:15:31.854Z,24.40
2023-08-22T17:18:19.319Z,24.30
2023-08-22T17:21:11.966Z,24.20
2023-08-22T17:23:59.351Z,24.10
2023-08-22T17:26:50.759Z,24.10
2023-08-22T17:29:39.547Z,23.90
2023-08-22T17:32:29.316Z,23.80
2023-08-22T17:35:17.312Z,23.80
2023-08-22T17:38:04.686Z,23.80
2023-08-22T17:40:51.876Z,23.80
2023-08-22T17:43:41.818Z,23.50
2023-08-22T17:46:31.843Z,23.50
2023-08-22T17:49:19.626Z,23.60
2023-08-22T17:52:08.473Z,23.60
2023-08-22T17:54:55.708Z,23.50
2023-08-22T17:57:44.184Z,23.50
2023-08-22T18:00:32.665Z,23.50
2023-08-22T18:03:21.985Z,23.50
2023-08-22T18:06:09.923Z,23.40
2023-08-22T18:08:57.351Z,23.30
2023-08-22T18:11:44.818Z,23.30
2023-08-22T18:14:32.232Z,23.30
2023-08-22T18:17:19.896Z,23.10
2023-08-22T18:20:10.371Z,23.00
2023-08-22T18:22:57.905Z,23.00
2023-08-22T18:25:45.267Z,22.90
2023-08-22T18:28:33.895Z,22.60
2023-08-22T18:31:26.192Z,22.60
2023-08-22T18:34:13.528Z,22.60
2023-08-22T18:37:02.505Z,22.60
2023-08-22T18:39:49.955Z,22.60
2023-08-22T18:42:37.608Z,22.40
2023-08-22T18:45:25.208Z,22.40
2023-08-22T18:48:12.857Z,22.40
2023-08-22T18:51:00.467Z,22.20
2023-08-22T18:53:49.543Z,22.00
2023-08-22T18:56:37.174Z,22.10
2023-08-22T18:59:24.413Z,22.10
2023-08-22T19:02:11.627Z,21.90
2023-08-22T19:04:59.168Z,21.50
2023-08-22T19:07:47.026Z,21.70
2023-08-22T19:10:36.132Z,21.70
2023-08-22T19:13:23.434Z,21.30
2023-08-22T19:16:10.950Z,21.40
2023-08-22T19:18:58.523Z,21.40
2023-08-22T19:21:46.156Z,21.00
2023-08-22T19:24:35.389Z,20.70
2023-08-22T19:27:24.261Z,20.60
2023-08-22T19:30:14.107Z,20.90
2023-08-22T19:33:17.978Z,20.90
2023-08-22T19:36:06.560Z,20.40
2023-08-22T19:38:53.980Z,20.50
2023-08-22T19:41:41.426Z,20.60
2023-08-22T19:44:30.392Z,20.70
2023-08-22T19:47:17.657Z,20.50
2023-08-22T19:50:05.831Z,20.10
2023-08-22T19:52:54.202Z,20.20
2023-08-22T19:55:41.734Z,20.40
2023-08-22T19:58:28.969Z,20.40
2023-08-22T20:01:17.951Z,20.50
2023-08-22T20:04:05.749Z,20.40
2023-08-22T20:06:53.219Z,20.30
2023-08-22T20:09:40.700Z,20.10
2023-08-22T20:12:28.289Z,19.90
2023-08-22T20:15:15.934Z,20.00
2023-08-22T20:18:04.921Z,19.80
2023-08-22T20:20:52.236Z,19.80
2023-08-22T20:23:39.411Z,19.60
2023-08-22T20:26:27.050Z,19.50
2023-08-22T20:29:14.275Z,19.70
2023-08-22T20:32:01.640Z,19.70
2023-08-22T20:34:51.406Z,19.60
2023-08-22T20:37:38.593Z,19.50
2023-08-22T20:40:26.193Z,19.60
2023-08-22T20:43:13.656Z,19.50
2023-08-22T20:46:01.743Z,19.50
2023-08-22T20:48:49.244Z,19.30
2023-08-22T20:51:38.170Z,19.20
2023-08-22T20:54:28.203Z,19.10
2023-08-22T20:57:15.888Z,19.10
2023-08-22T21:00:04.127Z,19.20
2023-08-22T21:02:51.621Z,19.20
2023-08-22T21:05:39.300Z,19.00
2023-08-22T21:08:27.871Z,18.80
2023-08-22T21:11:15.297Z,18.80
2023-08-22T21:14:03.700Z,19.00
2023-08-22T21:16:51.278Z,19.10
2023-08-22T21:19:38.791Z,19.10
2023-08-22T21:22:26.656Z,19.20
2023-08-22T21:25:15.237Z,18.90
2023-08-22T21:28:02.862Z,18.90
2023-08-22T21:30:52.492Z,19.00
2023-08-22T21:33:39.970Z,18.70
2023-08-22T21:36:27.638Z,18.60
2023-08-22T21:39:15.169Z,18.50
2023-08-22T21:42:04.123Z,18.40
2023-08-22T21:44:52.234Z,18.30
2023-08-22T21:47:39.557Z,18.40
2023-08-22T21:50:27.017Z,18.40
2023-08-22T21:53:14.617Z,18.20
2023-08-22T21:56:02.181Z,18.00
2023-08-22T21:58:51.036Z,18.00
2023-08-22T22:01:38.281Z,18.00
2023-08-22T22:04:25.893Z,17.90
2023-08-22T22:07:13.795Z,18.00
2023-08-22T22:10:01.025Z,18.10
2023-08-22T22:12:48.867Z,18.30
2023-08-22T22:15:38.049Z,18.20
2023-08-22T22:18:25.951Z,18.30
2023-08-22T22:21:13.142Z,18.30
2023-08-22T22:24:00.641Z,18.30
2023-08-22T22:26:48.685Z,18.30
2023-08-22T22:29:36.228Z,18.00
2023-08-22T22:32:25.032Z,17.80
2023-08-22T22:35:12.602Z,17.80
2023-08-22T22:38:00.195Z,17.70
2023-08-22T22:40:48.173Z,17.80
2023-08-22T22:43:35.750Z,17.70
2023-08-22T22:46:23.265Z,17.60
2023-08-22T22:49:11.989Z,17.70
2023-08-22T22:51:59.641Z,17.90
2023-08-22T22:54:46.790Z,17.80
2023-08-22T22:57:34.352Z,17.90
2023-08-22T23:00:22.002Z,17.60
2023-08-22T23:03:09.634Z,17.40
2023-08-22T23:06:06.916Z,17.30
2023-08-22T23:08:54.639Z,17.70
2023-08-22T23:12:04.271Z,17.60
2023-08-22T23:14:49.385Z,17.60
2023-08-22T23:17:38.177Z,17.60
2023-08-22T23:20:27.396Z,17.60
2023-08-22T23:23:16.067Z,17.30
2023-08-22T23:26:04.585Z,17.20
2023-08-22T23:28:52.231Z,17.00
2023-08-22T23:31:39.792Z,17.00
2023-08-22T23:34:29.325Z,17.10
2023-08-22T23:37:16.782Z,17.40
2023-08-22T23:43:00.479Z,17.40
2023-08-22T23:45:47.875Z,17.40
2023-08-22T23:48:35.359Z,17.20
2023-08-22T23:51:22.975Z,17.00
2023-08-22T23:54:10.223Z,16.90
2023-08-22T23:56:57.733Z,16.90
2023-08-22T23:59:46.789Z,16.80
